Time;durP1;ratioP1;P1;durP2;ratioP2;P2;SDS_P1;SDS_P2;PMS_P1;PMS_P2;Temp;Humidity;BMP_temperature;BMP_pressure;BME280_temperature;BME280_humidity;BME280_pressure;Samples;Min_cycle;Max_cycle;Signal;HPM_P1;HPM_P2
2023/01/29 00:00:09;;;;;;;8.10;6.17;;;;;;;2.96;66.20;100572.69;4984088;28;20207;-83
2023/01/29 00:02:37;;;;;;;8.50;6.75;;;;;;;2.94;66.31;100571.84;4986191;28;20242;-83
2023/01/29 00:05:05;;;;;;;9.00;6.17;;;;;;;2.91;66.38;100571.91;4986886;28;20591;-83
2023/01/29 00:07:31;;;;;;;13.80;7.68;;;;;;;2.90;66.49;100572.81;4982000;28;20184;-83
2023/01/29 00:09:56;;;;;;;5.72;4.97;;;;;;;2.89;66.39;100578.91;4985538;28;20216;-83
2023/01/29 00:12:21;;;;;;;9.80;7.33;;;;;;;2.87;66.46;100576.31;4983759;28;20265;-82
2023/01/29 00:14:47;;;;;;;12.23;7.77;;;;;;;2.87;66.71;100576.31;4984068;28;20222;-83
2023/01/29 00:17:12;;;;;;;7.77;5.97;;;;;;;2.88;66.19;100579.75;4984372;28;20557;-82
2023/01/29 00:19:37;;;;;;;8.03;6.20;;;;;;;2.87;66.27;100578.06;4983965;28;20711;-81
2023/01/29 00:22:03;;;;;;;7.87;6.87;;;;;;;2.86;66.66;100582.38;4985887;28;20264;-83
2023/01/29 00:24:28;;;;;;;11.10;6.40;;;;;;;2.88;66.45;100583.19;4986065;28;20619;-83
2023/01/29 00:26:54;;;;;;;9.40;5.10;;;;;;;2.90;66.18;100578.00;4989162;28;20196;-83
2023/01/29 00:29:20;;;;;;;9.03;6.73;;;;;;;2.92;66.26;100570.16;4985882;28;20704;-83
2023/01/29 00:31:46;;;;;;;8.77;5.97;;;;;;;2.93;66.13;100570.16;4983772;28;20688;-83
2023/01/29 00:34:12;;;;;;;8.90;6.00;;;;;;;2.94;66.09;100571.84;5000585;28;20226;-83
2023/01/29 00:36:37;;;;;;;9.10;6.43;;;;;;;2.96;66.20;100577.03;4983958;28;20202;-84
2023/01/29 00:39:09;;;;;;;9.23;5.53;;;;;;;2.98;65.81;100578.72;4985295;28;20503;-83
2023/01/29 00:47:29;;;;;;;8.40;5.30;;;;;;;2.95;65.94;100577.94;4984664;28;20216;-82
2023/01/29 00:49:55;;;;;;;11.23;6.07;;;;;;;2.97;66.08;100565.75;4987578;28;20220;-81
2023/01/29 00:52:24;;;;;;;11.43;7.28;;;;;;;2.99;65.83;100564.00;4987238;28;20211;-82
2023/01/29 00:54:51;;;;;;;12.75;7.05;;;;;;;3.00;65.78;100563.13;4986854;28;20298;-82
2023/01/29 00:57:16;;;;;;;9.48;6.10;;;;;;;3.01;66.06;100562.25;4987203;28;20192;-83
2023/01/29 00:59:42;;;;;;;10.90;7.00;;;;;;;3.04;65.97;100562.19;4984517;28;20208;-82
2023/01/29 01:04:51;;;;;;;10.35;6.82;;;;;;;3.06;65.67;100550.03;4988175;28;20247;-82
2023/01/29 01:07:16;;;;;;;8.23;5.90;;;;;;;3.05;65.57;100548.31;4984171;28;20259;-82
2023/01/29 01:12:27;;;;;;;8.98;5.65;;;;;;;3.01;65.73;100551.88;4985424;28;20207;-83
2023/01/29 01:14:53;;;;;;;9.38;6.85;;;;;;;3.01;65.87;100549.28;4986029;28;20279;-83
2023/01/29 01:17:18;;;;;;;6.77;5.43;;;;;;;3.02;65.63;100550.97;4987381;28;20279;-83
2023/01/29 01:19:44;;;;;;;12.93;6.23;;;;;;;3.02;65.45;100558.75;4986705;28;20203;-84
2023/01/29 01:22:10;;;;;;;8.33;6.90;;;;;;;3.00;65.61;100563.13;4988380;28;20176;-82
2023/01/29 01:24:36;;;;;;;10.18;5.10;;;;;;;2.99;65.84;100569.19;4986048;28;20195;-83
2023/01/29 01:27:02;;;;;;;9.73;6.15;;;;;;;2.97;65.83;100563.16;4986298;28;20208;-83
2023/01/29 01:29:50;;;;;;;8.80;5.70;;;;;;;2.96;65.74;100561.47;5034953;23;20318;-91
2023/01/29 01:32:31;;;;;;;;;;;;;;;;;;;;;
2023/01/29 01:35:12;;;;;;;8.77;5.88;;;;;;;2.92;65.68;100560.66;4970492;28;20661;-91
2023/01/29 01:38:14;;;;;;;15.55;8.43;;;;;;;2.90;66.06;100558.97;4972463;28;20194;-93
2023/01/29 01:40:50;;;;;;;13.40;8.07;;;;;;;2.88;66.15;100562.44;4970522;28;20192;-91
2023/01/29 01:43:27;;;;;;;8.32;7.45;;;;;;;2.84;66.06;100568.59;4974763;28;20180;-91
2023/01/29 01:46:14;;;;;;;17.10;10.10;;;;;;;2.80;66.07;100569.50;4961410;28;20189;-91
2023/01/29 01:48:50;;;;;;;;;;;;;;;;;;;;;
2023/01/29 01:51:17;;;;;;;9.45;6.57;;;;;;;2.76;66.07;100573.03;4976754;28;20195;-91
2023/01/29 01:54:22;;;;;;;;;;;;;;;;;;;;;
2023/01/29 01:57:15;;;;;;;10.82;6.53;;;;;;;2.75;66.05;100570.44;4970572;28;20240;-90
2023/01/29 01:59:54;;;;;;;11.70;7.25;;;;;;;2.71;66.11;100564.47;4949400;28;20278;-89
2023/01/29 02:11:29;;;;;;;11.18;7.68;;;;;;;2.49;66.41;100566.53;4973266;28;20180;-92
2023/01/29 02:14:10;;;;;;;11.35;7.35;;;;;;;2.44;66.48;100568.34;4973349;28;20211;-91
2023/01/29 02:16:53;;;;;;;10.52;7.55;;;;;;;2.40;66.54;100575.31;4969006;28;20194;-89
2023/01/29 02:19:45;;;;;;;10.85;7.03;;;;;;;2.36;66.81;100578.81;4969840;28;20242;-92
2023/01/29 02:22:24;;;;;;;11.52;6.97;;;;;;;2.31;66.22;100591.00;4953234;28;20188;-90
2023/01/29 02:25:03;;;;;;;13.05;8.30;;;;;;;2.26;66.56;100590.19;4970637;28;20246;-90
2023/01/29 02:27:52;;;;;;;9.30;6.72;;;;;;;2.22;66.36;100585.94;4971609;28;20191;-90
2023/01/29 02:30:49;;;;;;;12.07;6.25;;;;;;;2.21;66.35;100592.88;4943040;28;20496;-91
2023/01/29 02:33:40;;;;;;;12.07;7.00;;;;;;;2.21;66.46;100594.59;4967815;28;20227;-89
2023/01/29 02:36:23;;;;;;;11.75;7.45;;;;;;;2.21;66.62;100585.09;4953182;28;20192;-91
2023/01/29 02:39:18;;;;;;;11.77;6.63;;;;;;;2.18;66.31;100584.25;4970477;28;20251;-90
2023/01/29 02:42:15;;;;;;;13.52;7.13;;;;;;;2.11;66.12;100593.03;4973117;28;20192;-90
2023/01/29 02:45:27;;;;;;;9.30;7.30;;;;;;;2.09;66.48;100590.44;4952018;28;20278;-91
2023/01/29 02:47:59;;;;;;;8.98;6.13;;;;;;;2.04;66.38;100587.03;4950922;28;20275;-90
2023/01/29 02:50:50;;;;;;;;;;;;;;;;;;;;;
2023/01/29 02:53:34;;;;;;;11.18;7.10;;;;;;;1.99;66.63;100600.03;4966405;28;20742;-91
2023/01/29 02:56:16;;;;;;;8.55;7.65;;;;;;;1.98;66.46;100608.72;4967875;28;20269;-91
2023/01/29 02:58:51;;;;;;;10.95;7.05;;;;;;;1.95;66.60;100608.75;4976767;28;20184;-90
2023/01/29 03:01:22;;;;;;;10.20;6.93;;;;;;;1.96;66.31;100604.41;4964700;28;21042;-91
2023/01/29 03:03:59;;;;;;;12.60;6.43;;;;;;;1.98;66.24;100608.72;4970988;28;20206;-91
2023/01/29 03:06:45;;;;;;;9.55;7.47;;;;;;;1.97;66.44;100599.22;4964961;28;20790;-91
2023/01/29 03:09:32;;;;;;;13.38;6.55;;;;;;;1.95;66.04;100602.72;4976436;28;20253;-91
2023/01/29 03:12:17;;;;;;;8.43;5.95;;;;;;;1.93;66.03;100607.06;4972064;28;20309;-90
2023/01/29 03:18:09;;;;;;;10.70;6.35;;;;;;;1.88;66.11;100608.84;4958904;28;20202;-91
2023/01/29 03:20:47;;;;;;;13.23;7.60;;;;;;;1.88;65.93;100603.66;4975050;28;20191;-90
2023/01/29 03:23:26;;;;;;;9.27;6.93;;;;;;;1.88;66.19;100598.47;4958499;28;20175;-91
2023/01/29 03:34:50;;;;;;;8.98;5.65;;;;;;;1.81;65.84;100594.22;4956658;28;20228;-91
2023/01/29 03:37:44;;;;;;;11.82;6.80;;;;;;;1.79;66.08;100614.13;4973104;28;20183;-90
2023/01/29 03:40:12;;;;;;;9.30;6.53;;;;;;;1.77;66.28;100611.56;4955742;28;20326;-91
2023/01/29 03:43:19;;;;;;;10.38;6.50;;;;;;;1.74;66.13;100612.44;4926152;28;20232;-92
2023/01/29 03:46:19;;;;;;;;;;;;;;;;;;;;;
2023/01/29 03:48:54;;;;;;;8.52;6.05;;;;;;;1.78;66.23;100613.25;4932053;29;20189;-89
2023/01/29 03:51:35;;;;;;;10.02;7.63;;;;;;;1.81;65.92;100613.25;4917264;29;20358;-89
2023/01/29 03:54:26;;;;;;;11.85;6.90;;;;;;;1.82;65.63;100614.09;4913288;29;20235;-90
2023/01/29 03:57:04;;;;;;;8.40;6.75;;;;;;;1.76;65.66;100610.69;4923340;28;20659;-90
2023/01/29 04:00:03;;;;;;;11.88;7.32;;;;;;;1.76;65.89;100607.25;4930737;29;20220;-89
2023/01/29 04:02:57;;;;;;;12.82;6.93;;;;;;;1.70;65.69;100610.78;4925032;29;20197;-90
2023/01/29 04:05:29;;;;;;;9.68;6.25;;;;;;;1.68;65.95;100611.66;4915002;29;20804;-89
2023/01/29 04:08:14;;;;;;;13.38;5.60;;;;;;;1.68;65.78;100612.53;4919966;28;20245;-90
2023/01/29 04:10:46;;;;;;;7.78;5.68;;;;;;;1.68;65.70;100616.84;4884122;29;20663;-91
2023/01/29 04:13:22;;;;;;;11.20;7.13;;;;;;;1.67;65.71;100610.78;4910856;29;20224;-92
2023/01/29 04:16:18;;;;;;;12.15;6.45;;;;;;;1.68;65.84;100614.25;4923962;29;20190;-91
2023/01/29 04:19:20;;;;;;;12.88;7.13;;;;;;;1.68;65.60;100619.44;4903407;29;20197;-89
2023/01/29 04:22:06;;;;;;;11.35;7.22;;;;;;;1.67;65.79;100622.88;4921584;29;20748;-91
2023/01/29 04:24:33;;;;;;;8.85;6.55;;;;;;;1.67;65.79;100617.69;4910086;29;20683;-90
2023/01/29 04:27:35;;;;;;;8.38;6.35;;;;;;;1.69;65.80;100613.38;4913206;29;20201;-89
2023/01/29 04:30:15;;;;;;;9.15;6.30;;;;;;;1.72;65.60;100615.94;4913890;29;20226;-91
2023/01/29 04:33:04;;;;;;;7.50;5.05;;;;;;;1.74;65.28;100614.19;4910111;29;20214;-91
2023/01/29 04:35:54;;;;;;;10.40;7.97;;;;;;;1.75;65.65;100610.72;4917888;29;20564;-90
2023/01/29 04:38:59;;;;;;;;;;;;;;;;;;;;;
2023/01/29 04:41:32;;;;;;;9.30;7.20;;;;;;;1.77;65.60;100609.81;4931140;29;20258;-93
2023/01/29 04:44:22;;;;;;;9.63;6.97;;;;;;;1.79;65.40;100607.22;4903439;29;20294;-92
2023/01/29 04:47:22;;;;;;;16.35;6.50;;;;;;;1.76;65.17;100602.94;4914613;29;20210;-90
2023/01/29 04:50:08;;;;;;;9.05;6.30;;;;;;;1.75;65.59;100605.53;4906082;29;20273;-90
2023/01/29 04:53:01;;;;;;;10.38;6.13;;;;;;;1.76;65.33;100607.25;4897075;29;20243;-91
2023/01/29 04:55:40;;;;;;;8.50;5.93;;;;;;;1.77;65.30;100596.00;4905981;29;20548;-91
2023/01/29 04:58:32;;;;;;;9.15;6.13;;;;;;;1.78;65.67;100605.47;4901509;29;20195;-93
2023/01/29 05:01:14;;;;;;;9.23;5.97;;;;;;;1.79;65.20;100599.44;4908125;29;20334;-91
2023/01/29 05:03:54;;;;;;;7.93;5.60;;;;;;;1.77;65.35;100603.78;4905316;29;20571;-92
2023/01/29 05:06:31;;;;;;;8.75;6.75;;;;;;;1.76;65.71;100599.50;4903219;29;20659;-90
2023/01/29 05:09:08;;;;;;;10.43;6.53;;;;;;;1.75;65.57;100611.56;4910680;29;20186;-92
2023/01/29 05:11:35;;;;;;;12.18;7.35;;;;;;;1.75;65.27;100614.16;4911457;29;20205;-92
2023/01/29 05:14:11;;;;;;;9.10;6.97;;;;;;;1.73;65.50;100612.47;4908275;29;20218;-92
2023/01/29 05:16:51;;;;;;;10.27;6.05;;;;;;;1.69;65.33;100615.97;4910040;29;20189;-90
2023/01/29 05:19:20;;;;;;;7.22;5.65;;;;;;;1.68;65.58;100604.75;4902631;29;21053;-92
2023/01/29 05:22:08;;;;;;;7.63;5.68;;;;;;;1.65;65.67;100609.97;4904916;29;20197;-93
2023/01/29 05:24:43;;;;;;;8.90;6.20;;;;;;;1.61;65.65;100613.44;4904266;29;20198;-91
2023/01/29 05:30:08;;;;;;;8.00;5.13;;;;;;;1.59;65.68;100606.56;4918735;29;20276;-91
2023/01/29 05:32:43;;;;;;;11.10;6.07;;;;;;;1.57;65.72;100601.44;4912188;29;20184;-92
2023/01/29 05:35:09;;;;;;;9.38;6.00;;;;;;;1.58;65.59;100613.50;4908678;29;20228;-92
2023/01/29 05:37:37;;;;;;;14.73;7.10;;;;;;;1.58;65.75;100597.94;4929105;28;20296;-92
2023/01/29 05:40:11;;;;;;;10.48;7.40;;;;;;;1.59;65.56;100593.63;4921448;29;20189;-92
2023/01/29 05:42:41;;;;;;;8.98;6.90;;;;;;;1.58;65.78;100607.47;4917343;29;20193;-91
2023/01/29 05:45:11;;;;;;;8.93;6.00;;;;;;;1.59;65.68;100610.00;4925676;29;20186;-92
2023/01/29 05:47:41;;;;;;;9.48;5.82;;;;;;;1.59;65.67;100609.16;4929039;28;20186;-90
2023/01/29 05:50:18;;;;;;;9.77;5.85;;;;;;;1.55;65.81;100611.78;4922438;29;20193;-93
2023/01/29 05:52:43;;;;;;;11.80;5.45;;;;;;;1.52;65.61;100613.56;4921535;29;21201;-94
2023/01/29 05:55:22;;;;;;;;;;;;;;;;;;;;;
2023/01/29 05:57:57;;;;;;;11.40;6.38;;;;;;;1.47;65.72;100621.38;4924739;28;20924;-91
2023/01/29 06:00:25;;;;;;;10.10;6.80;;;;;;;1.47;65.74;100630.88;4908559;29;20182;-91
2023/01/29 06:02:57;;;;;;;10.63;6.03;;;;;;;1.46;65.72;100630.03;4911539;29;20313;-91
2023/01/29 06:05:53;;;;;;;;;;;;;;;;;;;;;
2023/01/29 06:08:32;;;;;;;;;;;;;;;;;;;;;
2023/01/29 06:11:40;;;;;;;11.95;6.93;;;;;;;1.43;65.68;100604.16;4931553;29;20195;-93
2023/01/29 06:14:24;;;;;;;;;;;;;;;;;;;;;
2023/01/29 06:17:10;;;;;;;;;;;;;;;;;;;;;
2023/01/29 06:20:05;;;;;;;11.00;5.93;;;;;;;1.43;65.97;100601.56;4935526;29;20206;-93
2023/01/29 06:26:22;;;;;;;8.70;6.75;;;;;;;1.36;65.86;100594.75;4904339;29;20212;-96
2023/01/29 06:28:59;;;;;;;9.98;6.43;;;;;;;1.33;65.77;100597.34;4944170;29;20197;-94
2023/01/29 06:35:42;;;;;;;7.57;5.47;;;;;;;1.29;65.88;100616.38;4927318;28;20217;-93
2023/01/29 06:38:20;;;;;;;;;;;;;;;;;;;;;
2023/01/29 06:41:30;;;;;;;;;;;;;;;;;;;;;
2023/01/29 06:45:07;;;;;;;;;;;;;;;;;;;;;
2023/01/29 06:47:51;;;;;;;;;;;;;;;;;;;;;
2023/01/29 06:50:37;;;;;;;11.93;7.40;;;;;;;1.23;66.18;100637.13;4921454;29;20205;-91
2023/01/29 06:53:30;;;;;;;;;;;;;;;;;;;;;
2023/01/29 06:56:14;;;;;;;10.15;7.03;;;;;;;1.16;66.00;100646.69;4930187;28;20186;-92
2023/01/29 06:59:04;;;;;;;11.90;6.85;;;;;;;1.13;66.14;100644.09;4929369;29;20201;-92
2023/01/29 07:01:52;;;;;;;8.82;6.72;;;;;;;1.10;66.19;100649.31;4926865;29;21051;-94
2023/01/29 07:04:40;;;;;;;14.80;8.55;;;;;;;1.08;66.25;100651.94;4925044;29;20504;-93
2023/01/29 07:07:22;;;;;;;10.57;5.88;;;;;;;1.07;66.47;100657.97;4919055;28;20205;-92
2023/01/29 07:09:58;;;;;;;10.57;6.95;;;;;;;1.07;66.34;100662.28;4924080;29;20201;-93
2023/01/29 07:12:59;;;;;;;;;;;;;;;;;;;;;
2023/01/29 07:15:38;;;;;;;12.32;6.75;;;;;;;1.06;66.23;100666.59;4918797;29;20207;-92
2023/01/29 07:18:21;;;;;;;;;;;;;;;;;;;;;
2023/01/29 07:21:02;;;;;;;10.52;7.93;;;;;;;0.99;66.34;100670.09;4923524;29;20202;-90
2023/01/29 07:24:03;;;;;;;;;;;;;;;;;;;;;
2023/01/29 07:26:39;;;;;;;10.55;6.65;;;;;;;1.03;65.97;100666.63;4923190;28;20202;-91
2023/01/29 07:29:10;;;;;;;7.97;6.18;;;;;;;1.08;66.01;100679.50;4922448;29;20214;-93
2023/01/29 07:31:41;;;;;;;10.30;6.45;;;;;;;1.11;65.80;100676.91;4922682;29;20201;-92
2023/01/29 07:34:29;;;;;;;;;;;;;;;;;;;;;
2023/01/29 07:37:10;;;;;;;9.65;6.28;;;;;;;1.20;65.47;100674.25;4924871;28;20204;-93
2023/01/29 07:40:00;;;;;;;14.00;6.68;;;;;;;1.27;65.56;100670.75;4925096;29;20208;-94
2023/01/29 07:42:42;;;;;;;10.98;6.75;;;;;;;1.34;65.06;100674.13;4924745;29;20642;-91
2023/01/29 07:45:21;;;;;;;;;;;;;;;;;;;;;
2023/01/29 07:48:22;;;;;;;;;;;;;;;;;;;;;
2023/01/29 07:50:59;;;;;;;14.40;7.95;;;;;;;1.49;64.66;100661.06;4929278;28;20200;-90
2023/01/29 07:53:45;;;;;;;;;;;;;;;;;;;;;
2023/01/29 07:56:25;;;;;;;9.70;7.32;;;;;;;1.61;64.58;100669.56;4940988;28;20192;-93
2023/01/29 07:59:00;;;;;;;10.10;6.17;;;;;;;1.67;64.38;100675.53;4928552;28;20623;-90
2023/01/29 08:02:09;;;;;;;;;;;;;;;;;;;;;
2023/01/29 08:05:00;;;;;;;14.60;9.27;;;;;;;1.86;63.86;100690.88;4944317;28;20437;-91
2023/01/29 08:07:29;;;;;;;11.52;7.03;;;;;;;1.94;64.02;100692.53;4939173;28;20193;-93
2023/01/29 08:09:59;;;;;;;13.50;6.93;;;;;;;2.05;63.56;100699.31;4944174;28;20405;-92
2023/01/29 08:12:40;;;;;;;;;;;;;;;;;;;;;
2023/01/29 08:15:27;;;;;;;;;;;;;;;;;;;;;
2023/01/29 08:17:59;;;;;;;9.32;6.10;;;;;;;2.49;62.27;100714.34;4944439;28;20192;-94
2023/01/29 08:20:38;;;;;;;11.18;7.13;;;;;;;2.58;62.31;100710.78;4951311;28;20188;-92
2023/01/29 08:24:05;;;;;;;;;;;;;;;;;;;;;
2023/01/29 08:30:32;;;;;;;8.90;6.60;;;;;;;2.67;61.68;100715.84;4906659;29;20490;-94
2023/01/29 08:37:04;;;;;;;;;;;;;;;;;;;;;
2023/01/29 08:51:55;;;;;;;;;;;;;;;;;;;;;
2023/01/29 08:55:05;;;;;;;;;;;;;;;;;;;;;
2023/01/29 08:58:52;;;;;;;;;;;;;;;;;;;;;
2023/01/29 09:02:28;;;;;;;;;;;;;;;;;;;;;
2023/01/29 09:05:11;;;;;;;13.32;8.85;;;;;;;2.66;61.94;100750.44;4961439;28;20444;-91
2023/01/29 09:07:39;;;;;;;11.82;8.18;;;;;;;2.66;61.58;100766.00;4951487;28;21371;-93
2023/01/29 09:10:31;;;;;;;10.63;7.55;;;;;;;2.65;61.57;100765.16;4950408;28;20539;-92
2023/01/29 09:13:08;;;;;;;9.00;7.13;;;;;;;2.64;61.39;100760.84;4950629;28;20284;-94
2023/01/29 09:16:15;;;;;;;;;;;;;;;;;;;;;
2023/01/29 09:20:05;;;;;;;15.45;7.32;;;;;;;2.64;60.76;100765.16;4966461;28;20424;-93
2023/01/29 09:26:42;;;;;;;;;;;;;;;;;;;;;
2023/01/29 09:30:16;;;;;;;12.45;8.20;;;;;;;2.68;60.61;100771.19;4955428;28;20200;-94
2023/01/29 09:36:51;;;;;;;12.93;10.00;;;;;;;2.82;60.64;100761.50;4949990;28;20474;-91
2023/01/29 09:39:30;;;;;;;15.43;8.88;;;;;;;2.86;60.70;100756.25;4948300;28;20679;-90
2023/01/29 09:42:48;;;;;;;;;;;;;;;;;;;;;
2023/01/29 09:45:31;;;;;;;10.27;7.00;;;;;;;2.98;60.20;100754.34;4953548;28;20997;-90
2023/01/29 09:48:22;;;;;;;;;;;;;;;;;;;;;
2023/01/29 09:51:46;;;;;;;9.95;7.10;;;;;;;3.22;59.46;100748.81;4953296;28;20192;-91
2023/01/29 09:57:43;;;;;;;11.40;7.07;;;;;;;3.39;58.90;100745.94;5073932;23;20236;-82
2023/01/29 10:00:24;;;;;;;11.32;6.78;;;;;;;3.50;58.87;100743.16;4937834;28;20218;-82
2023/01/29 10:03:24;;;;;;;9.98;7.95;;;;;;;3.67;58.49;100741.16;4938007;28;21288;-83
2023/01/29 10:06:18;;;;;;;9.73;6.57;;;;;;;3.88;58.07;100739.06;4929143;28;20615;-83
2023/01/29 10:08:51;;;;;;;12.05;6.03;;;;;;;4.10;57.58;100739.50;4932644;28;20206;-83
2023/01/29 10:11:25;;;;;;;13.05;8.00;;;;;;;4.32;57.03;100739.94;4940379;28;20221;-83
2023/01/29 10:14:10;;;;;;;13.23;7.70;;;;;;;4.47;56.08;100737.06;4940711;28;20257;-83
2023/01/29 10:16:46;;;;;;;10.60;7.22;;;;;;;4.52;55.39;100718.75;4941471;28;20190;-83
2023/01/29 10:19:20;;;;;;;17.25;8.75;;;;;;;4.66;54.74;100721.91;4939839;28;20200;-83
2023/01/29 10:21:59;;;;;;;10.65;7.18;;;;;;;4.68;54.33;100716.69;4937746;28;20252;-83
2023/01/29 10:24:40;;;;;;;9.77;6.57;;;;;;;4.68;54.37;100701.06;4940420;28;20182;-84
2023/01/29 10:27:14;;;;;;;7.68;5.90;;;;;;;4.79;54.73;100688.66;4939342;28;20264;-83
2023/01/29 10:29:42;;;;;;;9.45;5.55;;;;;;;4.90;54.20;100678.88;4937173;28;20293;-83
2023/01/29 10:32:14;;;;;;;10.98;7.20;;;;;;;5.01;54.38;100669.03;4946549;28;20231;-84
2023/01/29 10:35:04;;;;;;;11.43;7.00;;;;;;;5.14;53.96;100674.81;4930243;28;20214;-84
2023/01/29 10:37:39;;;;;;;11.07;7.28;;;;;;;5.23;53.95;100663.31;4941178;28;20213;-82
2023/01/29 10:40:25;;;;;;;11.45;7.25;;;;;;;5.28;53.67;100656.25;4923345;29;20265;-82
2023/01/29 10:43:19;;;;;;;8.95;6.95;;;;;;;5.26;53.69;100645.00;4926951;29;20202;-81
2023/01/29 10:45:56;;;;;;;10.48;7.75;;;;;;;5.33;53.25;100643.97;4928925;29;20199;-84
2023/01/29 10:48:46;;;;;;;10.05;6.60;;;;;;;5.46;53.09;100647.13;4926515;29;20702;-81
2023/01/29 10:51:30;;;;;;;10.85;6.35;;;;;;;5.62;52.63;100642.38;4928391;29;20234;-81
2023/01/29 10:54:24;;;;;;;9.40;7.75;;;;;;;5.76;52.15;100643.69;4928511;29;20229;-82
2023/01/29 10:57:08;;;;;;;12.88;8.52;;;;;;;5.87;52.19;100648.63;4931848;29;20526;-82
2023/01/29 10:59:48;;;;;;;8.63;6.85;;;;;;;5.86;51.84;100649.53;4929309;29;20240;-82
2023/01/29 11:02:20;;;;;;;9.93;6.03;;;;;;;5.80;51.90;100649.66;4930231;29;20204;-83
2023/01/29 11:04:45;;;;;;;9.75;6.60;;;;;;;5.81;51.97;100645.34;4921601;28;20289;-82
2023/01/29 11:07:12;;;;;;;6.50;4.87;;;;;;;5.71;51.72;100652.53;4927491;29;20276;-81
2023/01/29 11:10:13;;;;;;;10.68;5.40;;;;;;;5.65;51.99;100653.56;4927791;29;20213;-82
2023/01/29 11:12:40;;;;;;;6.90;4.85;;;;;;;5.58;51.87;100651.16;4923833;29;20212;-82
2023/01/29 11:15:17;;;;;;;8.63;5.40;;;;;;;5.61;51.40;100640.63;4924818;29;20224;-82
2023/01/29 11:18:02;;;;;;;6.03;5.18;;;;;;;5.69;51.64;100639.53;4923682;29;20193;-82
2023/01/29 11:20:29;;;;;;;12.52;5.80;;;;;;;5.80;51.55;100644.44;4925693;29;20367;-83
2023/01/29 11:22:54;;;;;;;6.13;4.60;;;;;;;5.85;50.76;100639.97;4922001;28;20304;-82
2023/01/29 11:25:21;;;;;;;7.17;5.23;;;;;;;5.82;50.94;100640.06;4924888;29;20282;-83
2023/01/29 11:27:55;;;;;;;6.95;4.95;;;;;;;5.73;50.63;100637.72;4925664;29;20221;-83
2023/01/29 11:30:25;;;;;;;6.63;5.55;;;;;;;5.71;50.25;100629.06;4925257;29;20486;-81
2023/01/29 11:33:04;;;;;;;6.50;4.00;;;;;;;5.76;50.39;100633.25;4922649;29;20320;-82
2023/01/29 11:35:32;;;;;;;4.65;3.58;;;;;;;5.84;50.19;100635.66;4925498;29;20248;-82
2023/01/29 11:38:20;;;;;;;5.68;3.70;;;;;;;5.83;48.58;100623.50;4923557;29;20201;-82
2023/01/29 11:40:46;;;;;;;5.45;4.32;;;;;;;5.82;49.18;100623.56;4924564;29;20206;-82
2023/01/29 11:43:16;;;;;;;8.33;4.23;;;;;;;5.81;48.38;100625.31;4924007;29;20200;-83
2023/01/29 11:45:43;;;;;;;6.78;4.38;;;;;;;5.70;48.84;100628.22;4913621;28;20473;-82
2023/01/29 11:48:15;;;;;;;5.57;4.47;;;;;;;5.69;49.08;100631.72;4914855;29;20190;-82
2023/01/29 11:50:41;;;;;;;6.25;4.18;;;;;;;5.68;49.29;100624.81;4915565;29;20213;-82
2023/01/29 11:53:22;;;;;;;4.90;3.70;;;;;;;5.77;49.34;100626.28;4912888;29;20635;-82
2023/01/29 11:55:48;;;;;;;9.60;4.75;;;;;;;5.80;49.49;100630.56;4913838;29;20549;-83
2023/01/29 11:58:29;;;;;;;6.37;4.40;;;;;;;5.83;49.53;100617.44;4914198;29;20288;-82
2023/01/29 12:00:56;;;;;;;5.60;4.10;;;;;;;5.87;49.52;100617.31;4914593;29;20211;-83
2023/01/29 12:03:36;;;;;;;7.00;4.75;;;;;;;5.86;49.60;100613.03;4911386;29;20197;-82
2023/01/29 12:06:13;;;;;;;8.10;4.90;;;;;;;5.84;49.77;100614.81;4913469;29;20271;-82
2023/01/29 12:08:39;;;;;;;5.45;4.05;;;;;;;5.87;50.07;100614.72;4914701;29;20193;-82
2023/01/29 12:11:09;;;;;;;6.30;3.60;;;;;;;5.86;49.83;100609.53;4916752;29;20576;-82
2023/01/29 12:13:35;;;;;;;5.75;4.43;;;;;;;5.86;49.82;100614.75;4913037;29;20214;-83
2023/01/29 12:16:26;;;;;;;9.83;5.27;;;;;;;5.84;49.78;100599.16;4914416;29;20820;-82
2023/01/29 12:19:12;;;;;;;7.30;4.28;;;;;;;5.80;49.27;100600.13;4917091;29;20446;-82
2023/01/29 12:21:49;;;;;;;7.18;3.78;;;;;;;5.80;49.39;100592.31;4914678;29;20260;-82
2023/01/29 12:24:32;;;;;;;6.93;4.53;;;;;;;5.84;49.58;100590.50;4910690;29;20278;-83
2023/01/29 12:27:11;;;;;;;6.70;4.95;;;;;;;5.87;49.37;100593.00;4915201;29;20246;-80
2023/01/29 12:30:00;;;;;;;8.07;6.10;;;;;;;5.85;49.34;100593.03;4914959;29;20303;-82
2023/01/29 12:32:47;;;;;;;7.05;5.10;;;;;;;5.88;49.73;100589.50;4910446;29;20199;-81
2023/01/29 12:35:21;;;;;;;10.18;6.10;;;;;;;5.91;49.83;100586.78;4911490;29;20210;-82
2023/01/29 12:38:07;;;;;;;7.93;5.18;;;;;;;5.90;49.93;100593.75;4915454;29;20214;-82
2023/01/29 12:40:45;;;;;;;5.75;5.25;;;;;;;5.89;50.02;100589.47;4918977;29;20244;-82
2023/01/29 12:43:22;;;;;;;6.88;4.97;;;;;;;5.93;49.83;100580.66;4918070;29;20588;-82
2023/01/29 12:45:53;;;;;;;7.65;5.72;;;;;;;5.98;49.72;100576.19;4912646;29;20221;-83
2023/01/29 12:48:36;;;;;;;8.10;6.78;;;;;;;6.00;49.64;100570.06;4917279;29;20240;-83
2023/01/29 12:51:14;;;;;;;8.18;4.30;;;;;;;5.93;49.74;100564.13;4916468;29;20269;-83
2023/01/29 12:53:58;;;;;;;7.22;5.32;;;;;;;5.89;49.75;100560.78;4915839;29;20859;-81
2023/01/29 12:56:37;;;;;;;17.00;5.45;;;;;;;5.90;49.92;100545.97;4915721;29;20225;-82
2023/01/29 12:59:18;;;;;;;6.75;5.32;;;;;;;5.86;50.01;100552.16;4920187;29;20190;-80
2023/01/29 13:01:51;;;;;;;7.47;4.78;;;;;;;5.80;49.66;100554.97;4921817;29;20193;-82
2023/01/29 13:04:25;;;;;;;6.65;5.38;;;;;;;5.66;49.46;100551.00;4918473;29;20186;-82
2023/01/29 13:06:58;;;;;;;8.82;5.45;;;;;;;5.58;50.32;100545.16;4917979;29;20278;-81
2023/01/29 13:09:27;;;;;;;9.98;6.43;;;;;;;5.58;49.79;100536.47;4918923;29;20316;-82
2023/01/29 13:12:02;;;;;;;6.72;6.00;;;;;;;5.61;50.26;100542.44;4918054;29;20203;-82
2023/01/29 13:14:41;;;;;;;10.95;5.60;;;;;;;5.65;50.29;100532.81;4919803;29;20321;-82
2023/01/29 13:17:14;;;;;;;8.30;5.90;;;;;;;5.69;49.76;100529.19;4919269;29;20199;-81
2023/01/29 13:19:46;;;;;;;11.73;7.32;;;;;;;5.64;50.06;100531.09;4922396;29;20205;-82
2023/01/29 13:22:21;;;;;;;10.68;6.03;;;;;;;5.65;50.38;100515.41;4919136;29;20284;-82
2023/01/29 13:24:47;;;;;;;7.90;6.68;;;;;;;5.67;50.13;100515.34;4919278;29;20490;-81
2023/01/29 13:27:28;;;;;;;9.63;5.80;;;;;;;5.69;50.09;100506.59;4921799;29;20766;-82
2023/01/29 13:29:55;;;;;;;8.98;5.40;;;;;;;5.70;50.00;100499.66;4925506;29;20489;-82
2023/01/29 13:32:26;;;;;;;6.93;4.40;;;;;;;5.78;50.23;100497.66;4959304;23;20489;-79
2023/01/29 13:34:56;;;;;;;9.93;5.30;;;;;;;5.86;49.80;100497.41;4917296;29;20478;-79
2023/01/29 13:37:45;;;;;;;7.25;5.05;;;;;;;5.94;49.54;100493.72;4955190;29;20194;-79
2023/01/29 13:40:21;;;;;;;6.65;5.53;;;;;;;6.04;49.51;100480.41;4939891;29;20186;-79
2023/01/29 13:42:48;;;;;;;9.07;6.53;;;;;;;6.13;49.20;100485.31;4927449;29;20216;-81
2023/01/29 13:45:20;;;;;;;8.27;5.95;;;;;;;6.17;49.48;100481.72;4926955;28;20308;-80
2023/01/29 13:47:48;;;;;;;10.48;5.25;;;;;;;6.19;49.10;100470.34;4929939;29;20198;-82
2023/01/29 13:50:29;;;;;;;8.82;5.95;;;;;;;6.24;49.26;100469.31;4927904;29;20194;-81
2023/01/29 13:52:59;;;;;;;6.75;5.28;;;;;;;6.24;49.51;100471.94;4926563;28;20189;-83
2023/01/29 13:55:32;;;;;;;9.63;5.68;;;;;;;6.21;49.53;100470.28;4927079;29;20697;-80
2023/01/29 13:57:59;;;;;;;7.65;5.65;;;;;;;6.19;49.58;100470.34;4927482;29;20198;-80
2023/01/29 14:00:34;;;;;;;10.25;6.90;;;;;;;6.18;49.94;100468.66;4928097;29;20197;-80
2023/01/29 14:02:59;;;;;;;8.35;6.32;;;;;;;6.14;49.27;100474.00;4927777;29;20888;-83
2023/01/29 14:05:32;;;;;;;6.73;5.30;;;;;;;6.04;49.29;100480.41;4928192;29;20264;-81
2023/01/29 14:08:12;;;;;;;9.93;5.85;;;;;;;5.89;49.27;100481.72;4925839;29;20204;-82
2023/01/29 14:10:39;;;;;;;8.98;5.55;;;;;;;5.80;49.90;100484.56;4926711;29;20197;-83
2023/01/29 14:13:17;;;;;;;7.63;6.30;;;;;;;5.82;49.79;100480.16;4925186;29;20253;-79
2023/01/29 14:16:08;;;;;;;7.18;5.72;;;;;;;5.87;49.53;100479.13;4925341;29;20189;-79
2023/01/29 14:18:35;;;;;;;9.77;6.32;;;;;;;5.88;49.77;100486.03;4924972;29;20649;-78
2023/01/29 14:21:16;;;;;;;8.85;5.30;;;;;;;5.89;49.54;100486.91;4939881;28;20237;-78
2023/01/29 14:23:48;;;;;;;5.35;4.80;;;;;;;5.88;49.66;100486.03;4925516;29;20200;-77
2023/01/29 14:26:23;;;;;;;7.88;5.43;;;;;;;5.86;49.46;100486.97;4924390;29;20245;-78
2023/01/29 14:28:57;;;;;;;6.13;5.57;;;;;;;5.87;49.87;100489.56;4926889;29;20194;-78
2023/01/29 14:31:45;;;;;;;7.25;6.28;;;;;;;5.82;49.71;100483.63;4925046;29;20230;-78
2023/01/29 14:34:34;;;;;;;7.82;4.97;;;;;;;5.75;49.99;100487.31;4922478;28;20186;-77